sensor_id;sensor_type;location;lat;lon;timestamp;P1;durP1;ratioP1;P2;durP2;ratioP2
74941;SDS011;63506;49.346;8.798;2023-01-26T00:02:13;20.85;;;14.07;;
74941;SDS011;63506;49.346;8.798;2023-01-26T00:04:43;22.75;;;17.58;;
74941;SDS011;63506;49.346;8.798;2023-01-26T00:07:13;21.27;;;13.60;;
74941;SDS011;63506;49.346;8.798;2023-01-26T00:09:43;19.20;;;15.10;;
74941;SDS011;63506;49.346;8.798;2023-01-26T00:12:10;21.70;;;12.73;;
74941;SDS011;63506;49.346;8.798;2023-01-26T00:14:37;22.92;;;17.02;;
74941;SDS011;63506;49.346;8.798;2023-01-26T00:17:18;18.63;;;11.82;;
74941;SDS011;63506;49.346;8.798;2023-01-26T00:19:54;20.77;;;14.90;;
74941;SDS011;63506;49.346;8.798;2023-01-26T00:22:23;19.42;;;13.77;;
74941;SDS011;63506;49.346;8.798;2023-01-26T00:24:53;25.90;;;13.95;;
74941;SDS011;63506;49.346;8.798;2023-01-26T00:27:23;16.98;;;12.02;;
74941;SDS011;63506;49.346;8.798;2023-01-26T00:29:51;20.83;;;15.93;;
74941;SDS011;63506;49.346;8.798;2023-01-26T00:32:20;18.77;;;10.50;;
74941;SDS011;63506;49.346;8.798;2023-01-26T00:34:47;18.98;;;12.15;;
74941;SDS011;63506;49.346;8.798;2023-01-26T00:37:17;16.63;;;11.82;;
74941;SDS011;63506;49.346;8.798;2023-01-26T00:39:48;18.92;;;11.40;;
74941;SDS011;63506;49.346;8.798;2023-01-26T00:42:18;21.70;;;12.40;;
74941;SDS011;63506;49.346;8.798;2023-01-26T00:44:46;20.20;;;15.35;;
74941;SDS011;63506;49.346;8.798;2023-01-26T00:47:13;22.25;;;14.70;;
74941;SDS011;63506;49.346;8.798;2023-01-26T00:49:41;20.42;;;12.88;;
74941;SDS011;63506;49.346;8.798;2023-01-26T00:52:08;22.75;;;12.90;;
74941;SDS011;63506;49.346;8.798;2023-01-26T00:54:38;16.52;;;11.70;;
74941;SDS011;63506;49.346;8.798;2023-01-26T00:57:09;18.15;;;12.30;;
74941;SDS011;63506;49.346;8.798;2023-01-26T00:59:38;16.95;;;12.38;;
74941;SDS011;63506;49.346;8.798;2023-01-26T01:02:08;19.60;;;11.57;;
74941;SDS011;63506;49.346;8.798;2023-01-26T01:04:35;21.63;;;14.32;;
74941;SDS011;63506;49.346;8.798;2023-01-26T01:07:02;23.63;;;14.15;;
74941;SDS011;63506;49.346;8.798;2023-01-26T01:09:31;22.85;;;13.52;;
74941;SDS011;63506;49.346;8.798;2023-01-26T01:11:58;19.60;;;14.02;;
74941;SDS011;63506;49.346;8.798;2023-01-26T01:14:30;25.98;;;13.25;;
74941;SDS011;63506;49.346;8.798;2023-01-26T01:16:59;21.70;;;14.98;;
74941;SDS011;63506;49.346;8.798;2023-01-26T01:19:29;20.10;;;14.80;;
74941;SDS011;63506;49.346;8.798;2023-01-26T01:21:58;18.52;;;12.57;;
74941;SDS011;63506;49.346;8.798;2023-01-26T01:24:28;19.42;;;12.15;;
74941;SDS011;63506;49.346;8.798;2023-01-26T01:26:55;21.40;;;14.68;;
74941;SDS011;63506;49.346;8.798;2023-01-26T01:29:25;16.98;;;12.68;;
74941;SDS011;63506;49.346;8.798;2023-01-26T01:31:55;16.13;;;11.02;;
74941;SDS011;63506;49.346;8.798;2023-01-26T01:34:25;16.88;;;13.43;;
74941;SDS011;63506;49.346;8.798;2023-01-26T01:36:55;21.42;;;12.50;;
74941;SDS011;63506;49.346;8.798;2023-01-26T01:39:24;19.40;;;14.68;;
74941;SDS011;63506;49.346;8.798;2023-01-26T01:41:51;15.88;;;11.88;;
74941;SDS011;63506;49.346;8.798;2023-01-26T01:44:19;18.35;;;13.07;;
74941;SDS011;63506;49.346;8.798;2023-01-26T01:46:49;22.63;;;14.00;;
74941;SDS011;63506;49.346;8.798;2023-01-26T01:49:21;19.88;;;14.57;;
74941;SDS011;63506;49.346;8.798;2023-01-26T01:51:55;20.83;;;12.25;;
74941;SDS011;63506;49.346;8.798;2023-01-26T01:54:27;19.67;;;15.00;;
74941;SDS011;63506;49.346;8.798;2023-01-26T01:57:01;19.83;;;14.48;;
74941;SDS011;63506;49.346;8.798;2023-01-26T01:59:32;13.20;;;10.13;;
74941;SDS011;63506;49.346;8.798;2023-01-26T02:02:04;18.48;;;12.73;;
74941;SDS011;63506;49.346;8.798;2023-01-26T02:04:35;18.83;;;11.82;;
74941;SDS011;63506;49.346;8.798;2023-01-26T02:07:05;17.75;;;12.23;;
74941;SDS011;63506;49.346;8.798;2023-01-26T02:09:38;21.40;;;15.52;;
74941;SDS011;63506;49.346;8.798;2023-01-26T02:12:28;17.60;;;10.60;;
74941;SDS011;63506;49.346;8.798;2023-01-26T02:14:58;20.35;;;11.90;;
74941;SDS011;63506;49.346;8.798;2023-01-26T02:17:26;22.33;;;12.02;;
74941;SDS011;63506;49.346;8.798;2023-01-26T02:19:57;14.75;;;10.30;;
74941;SDS011;63506;49.346;8.798;2023-01-26T02:22:33;18.02;;;13.75;;
74941;SDS011;63506;49.346;8.798;2023-01-26T02:25:11;22.23;;;13.00;;
74941;SDS011;63506;49.346;8.798;2023-01-26T02:27:49;17.80;;;12.40;;
74941;SDS011;63506;49.346;8.798;2023-01-26T02:30:19;14.77;;;10.23;;
74941;SDS011;63506;49.346;8.798;2023-01-26T02:32:51;19.27;;;14.57;;
74941;SDS011;63506;49.346;8.798;2023-01-26T02:35:21;18.77;;;12.60;;
74941;SDS011;63506;49.346;8.798;2023-01-26T02:37:51;20.65;;;12.65;;
74941;SDS011;63506;49.346;8.798;2023-01-26T02:40:23;19.27;;;12.32;;
74941;SDS011;63506;49.346;8.798;2023-01-26T02:42:54;19.98;;;11.70;;
74941;SDS011;63506;49.346;8.798;2023-01-26T02:45:22;13.32;;;11.93;;
74941;SDS011;63506;49.346;8.798;2023-01-26T02:47:49;21.40;;;12.50;;
74941;SDS011;63506;49.346;8.798;2023-01-26T02:50:18;17.92;;;11.73;;
74941;SDS011;63506;49.346;8.798;2023-01-26T02:52:44;20.42;;;14.23;;
74941;SDS011;63506;49.346;8.798;2023-01-26T02:55:21;19.98;;;11.65;;
74941;SDS011;63506;49.346;8.798;2023-01-26T02:57:54;21.98;;;13.52;;
74941;SDS011;63506;49.346;8.798;2023-01-26T03:00:25;19.23;;;13.68;;
74941;SDS011;63506;49.346;8.798;2023-01-26T03:02:54;19.00;;;12.05;;
74941;SDS011;63506;49.346;8.798;2023-01-26T03:05:26;22.55;;;13.40;;
74941;SDS011;63506;49.346;8.798;2023-01-26T03:07:54;15.88;;;12.20;;
74941;SDS011;63506;49.346;8.798;2023-01-26T03:10:24;19.98;;;13.43;;
74941;SDS011;63506;49.346;8.798;2023-01-26T03:12:58;21.20;;;13.23;;
74941;SDS011;63506;49.346;8.798;2023-01-26T03:15:30;19.38;;;12.40;;
74941;SDS011;63506;49.346;8.798;2023-01-26T03:18:18;17.83;;;11.55;;
74941;SDS011;63506;49.346;8.798;2023-01-26T03:21:08;21.15;;;12.35;;
74941;SDS011;63506;49.346;8.798;2023-01-26T03:23:53;21.25;;;15.43;;
74941;SDS011;63506;49.346;8.798;2023-01-26T03:26:42;17.00;;;12.38;;
74941;SDS011;63506;49.346;8.798;2023-01-26T03:29:29;19.15;;;12.02;;
74941;SDS011;63506;49.346;8.798;2023-01-26T03:32:00;20.95;;;10.85;;
74941;SDS011;63506;49.346;8.798;2023-01-26T03:34:28;17.20;;;12.25;;
74941;SDS011;63506;49.346;8.798;2023-01-26T03:36:56;18.15;;;11.25;;
74941;SDS011;63506;49.346;8.798;2023-01-26T03:39:23;16.08;;;11.27;;
74941;SDS011;63506;49.346;8.798;2023-01-26T03:42:08;17.27;;;11.82;;
74941;SDS011;63506;49.346;8.798;2023-01-26T03:44:55;14.27;;;11.02;;
74941;SDS011;63506;49.346;8.798;2023-01-26T03:47:41;21.40;;;13.07;;
74941;SDS011;63506;49.346;8.798;2023-01-26T03:50:29;17.73;;;11.52;;
74941;SDS011;63506;49.346;8.798;2023-01-26T03:53:17;21.20;;;11.85;;
74941;SDS011;63506;49.346;8.798;2023-01-26T03:56:07;19.92;;;12.23;;
74941;SDS011;63506;49.346;8.798;2023-01-26T03:58:47;17.63;;;13.10;;
74941;SDS011;63506;49.346;8.798;2023-01-26T04:01:19;17.27;;;11.55;;
74941;SDS011;63506;49.346;8.798;2023-01-26T04:03:53;20.27;;;13.95;;
74941;SDS011;63506;49.346;8.798;2023-01-26T04:06:43;21.90;;;12.70;;
74941;SDS011;63506;49.346;8.798;2023-01-26T04:09:31;17.98;;;12.45;;
74941;SDS011;63506;49.346;8.798;2023-01-26T04:11:59;17.13;;;12.57;;
74941;SDS011;63506;49.346;8.798;2023-01-26T04:14:26;23.65;;;15.07;;
74941;SDS011;63506;49.346;8.798;2023-01-26T04:17:12;13.80;;;10.88;;
74941;SDS011;63506;49.346;8.798;2023-01-26T04:19:59;18.35;;;10.57;;
74941;SDS011;63506;49.346;8.798;2023-01-26T04:22:44;21.02;;;13.02;;
74941;SDS011;63506;49.346;8.798;2023-01-26T04:25:15;18.73;;;11.90;;
74941;SDS011;63506;49.346;8.798;2023-01-26T04:27:46;21.70;;;12.43;;
74941;SDS011;63506;49.346;8.798;2023-01-26T04:30:14;16.13;;;12.27;;
74941;SDS011;63506;49.346;8.798;2023-01-26T04:32:43;19.95;;;11.88;;
74941;SDS011;63506;49.346;8.798;2023-01-26T04:35:12;16.88;;;12.15;;
74941;SDS011;63506;49.346;8.798;2023-01-26T04:37:41;15.45;;;11.23;;
74941;SDS011;63506;49.346;8.798;2023-01-26T04:40:13;15.82;;;11.60;;
74941;SDS011;63506;49.346;8.798;2023-01-26T04:42:43;15.02;;;11.00;;
74941;SDS011;63506;49.346;8.798;2023-01-26T04:45:13;15.73;;;10.52;;
74941;SDS011;63506;49.346;8.798;2023-01-26T04:47:41;21.20;;;11.38;;
74941;SDS011;63506;49.346;8.798;2023-01-26T04:50:10;21.45;;;13.57;;
74941;SDS011;63506;49.346;8.798;2023-01-26T04:52:37;20.45;;;13.50;;
74941;SDS011;63506;49.346;8.798;2023-01-26T04:55:05;22.85;;;13.48;;
74941;SDS011;63506;49.346;8.798;2023-01-26T04:57:33;21.88;;;13.55;;
74941;SDS011;63506;49.346;8.798;2023-01-26T05:00:02;21.65;;;14.68;;
74941;SDS011;63506;49.346;8.798;2023-01-26T05:02:31;18.83;;;14.07;;
74941;SDS011;63506;49.346;8.798;2023-01-26T05:05:01;17.30;;;13.73;;
74941;SDS011;63506;49.346;8.798;2023-01-26T05:07:29;21.70;;;15.20;;
74941;SDS011;63506;49.346;8.798;2023-01-26T05:09:59;21.13;;;13.40;;
74941;SDS011;63506;49.346;8.798;2023-01-26T05:12:53;27.73;;;15.10;;
74941;SDS011;63506;49.346;8.798;2023-01-26T05:15:20;26.58;;;18.20;;
74941;SDS011;63506;49.346;8.798;2023-01-26T05:18:13;24.25;;;17.15;;
74941;SDS011;63506;49.346;8.798;2023-01-26T05:21:03;26.08;;;17.98;;
74941;SDS011;63506;49.346;8.798;2023-01-26T05:23:39;27.35;;;18.90;;
74941;SDS011;63506;49.346;8.798;2023-01-26T05:26:45;31.75;;;18.63;;
74941;SDS011;63506;49.346;8.798;2023-01-26T05:29:19;28.83;;;18.65;;
74941;SDS011;63506;49.346;8.798;2023-01-26T05:31:46;27.55;;;17.73;;
74941;SDS011;63506;49.346;8.798;2023-01-26T05:34:19;28.67;;;18.35;;
74941;SDS011;63506;49.346;8.798;2023-01-26T05:36:49;27.63;;;17.50;;
74941;SDS011;63506;49.346;8.798;2023-01-26T05:39:17;24.95;;;19.75;;
74941;SDS011;63506;49.346;8.798;2023-01-26T05:41:49;23.52;;;17.65;;
74941;SDS011;63506;49.346;8.798;2023-01-26T05:44:16;27.10;;;18.83;;
74941;SDS011;63506;49.346;8.798;2023-01-26T05:46:53;26.27;;;18.23;;
74941;SDS011;63506;49.346;8.798;2023-01-26T05:49:21;26.50;;;17.73;;
74941;SDS011;63506;49.346;8.798;2023-01-26T05:51:49;22.05;;;16.63;;
74941;SDS011;63506;49.346;8.798;2023-01-26T05:54:18;30.95;;;19.10;;
74941;SDS011;63506;49.346;8.798;2023-01-26T05:56:48;24.90;;;18.70;;
74941;SDS011;63506;49.346;8.798;2023-01-26T05:59:19;31.13;;;21.92;;
74941;SDS011;63506;49.346;8.798;2023-01-26T06:01:49;26.98;;;17.42;;
74941;SDS011;63506;49.346;8.798;2023-01-26T06:04:18;25.60;;;17.52;;
74941;SDS011;63506;49.346;8.798;2023-01-26T06:06:51;28.85;;;18.92;;
74941;SDS011;63506;49.346;8.798;2023-01-26T06:09:23;26.27;;;17.83;;
74941;SDS011;63506;49.346;8.798;2023-01-26T06:12:31;23.58;;;16.63;;
74941;SDS011;63506;49.346;8.798;2023-01-26T06:15:18;29.23;;;15.73;;
74941;SDS011;63506;49.346;8.798;2023-01-26T06:17:47;30.45;;;20.23;;
74941;SDS011;63506;49.346;8.798;2023-01-26T06:20:16;31.85;;;20.00;;
74941;SDS011;63506;49.346;8.798;2023-01-26T06:22:58;29.40;;;20.45;;
74941;SDS011;63506;49.346;8.798;2023-01-26T06:25:27;29.13;;;22.40;;
74941;SDS011;63506;49.346;8.798;2023-01-26T06:27:55;28.63;;;18.50;;
74941;SDS011;63506;49.346;8.798;2023-01-26T06:30:25;30.35;;;20.70;;
74941;SDS011;63506;49.346;8.798;2023-01-26T06:32:57;31.55;;;19.25;;
74941;SDS011;63506;49.346;8.798;2023-01-26T06:35:24;28.10;;;18.70;;
74941;SDS011;63506;49.346;8.798;2023-01-26T06:37:54;27.85;;;19.27;;
74941;SDS011;63506;49.346;8.798;2023-01-26T06:40:22;29.67;;;20.38;;
74941;SDS011;63506;49.346;8.798;2023-01-26T06:42:50;23.15;;;14.82;;
74941;SDS011;63506;49.346;8.798;2023-01-26T06:45:18;26.00;;;18.20;;
74941;SDS011;63506;49.346;8.798;2023-01-26T06:47:47;23.95;;;17.00;;
74941;SDS011;63506;49.346;8.798;2023-01-26T06:50:17;24.58;;;16.42;;
74941;SDS011;63506;49.346;8.798;2023-01-26T06:52:51;28.15;;;17.05;;
74941;SDS011;63506;49.346;8.798;2023-01-26T06:55:47;24.13;;;17.05;;
74941;SDS011;63506;49.346;8.798;2023-01-26T06:58:43;31.08;;;17.70;;
74941;SDS011;63506;49.346;8.798;2023-01-26T11:34:36;11.45;;;7.32;;
74941;SDS011;63506;49.346;8.798;2023-01-26T13:52:01;15.80;;;11.63;;
74941;SDS011;63506;49.346;8.798;2023-01-26T13:54:31;19.25;;;12.05;;
74941;SDS011;63506;49.346;8.798;2023-01-26T13:57:00;14.25;;;12.75;;
74941;SDS011;63506;49.346;8.798;2023-01-26T13:59:28;17.27;;;12.20;;
74941;SDS011;63506;49.346;8.798;2023-01-26T14:02:09;14.48;;;10.55;;
74941;SDS011;63506;49.346;8.798;2023-01-26T14:04:37;14.43;;;10.75;;
74941;SDS011;63506;49.346;8.798;2023-01-26T14:07:18;16.13;;;11.35;;
74941;SDS011;63506;49.346;8.798;2023-01-26T14:09:48;19.13;;;11.70;;
74941;SDS011;63506;49.346;8.798;2023-01-26T14:12:19;13.52;;;9.45;;
74941;SDS011;63506;49.346;8.798;2023-01-26T14:14:52;16.38;;;9.85;;
74941;SDS011;63506;49.346;8.798;2023-01-26T14:17:25;13.38;;;9.45;;
74941;SDS011;63506;49.346;8.798;2023-01-26T14:19:53;17.05;;;12.75;;
74941;SDS011;63506;49.346;8.798;2023-01-26T14:22:24;14.50;;;11.32;;
74941;SDS011;63506;49.346;8.798;2023-01-26T14:24:56;15.45;;;12.38;;
74941;SDS011;63506;49.346;8.798;2023-01-26T14:27:28;10.90;;;9.50;;
74941;SDS011;63506;49.346;8.798;2023-01-26T14:29:57;11.82;;;9.15;;
74941;SDS011;63506;49.346;8.798;2023-01-26T14:32:24;16.02;;;13.55;;
74941;SDS011;63506;49.346;8.798;2023-01-26T14:34:55;15.63;;;11.52;;
74941;SDS011;63506;49.346;8.798;2023-01-26T14:37:24;17.77;;;11.43;;
74941;SDS011;63506;49.346;8.798;2023-01-26T14:40:08;15.40;;;10.98;;
74941;SDS011;63506;49.346;8.798;2023-01-26T14:42:38;17.20;;;13.60;;
74941;SDS011;63506;49.346;8.798;2023-01-26T14:45:10;19.17;;;13.18;;
74941;SDS011;63506;49.346;8.798;2023-01-26T14:47:37;17.05;;;12.60;;
74941;SDS011;63506;49.346;8.798;2023-01-26T14:50:09;14.60;;;11.85;;
74941;SDS011;63506;49.346;8.798;2023-01-26T14:52:52;15.43;;;11.68;;
74941;SDS011;63506;49.346;8.798;2023-01-26T14:55:23;16.70;;;12.35;;
74941;SDS011;63506;49.346;8.798;2023-01-26T14:57:55;18.42;;;13.82;;
74941;SDS011;63506;49.346;8.798;2023-01-26T15:00:26;15.27;;;11.98;;
74941;SDS011;63506;49.346;8.798;2023-01-26T15:02:57;17.92;;;12.82;;
74941;SDS011;63506;49.346;8.798;2023-01-26T15:05:30;19.02;;;14.68;;
74941;SDS011;63506;49.346;8.798;2023-01-26T15:08:00;19.75;;;13.40;;
74941;SDS011;63506;49.346;8.798;2023-01-26T15:10:34;19.40;;;13.90;;
74941;SDS011;63506;49.346;8.798;2023-01-26T15:13:04;16.20;;;12.48;;
74941;SDS011;63506;49.346;8.798;2023-01-26T15:15:35;18.77;;;12.70;;
74941;SDS011;63506;49.346;8.798;2023-01-26T15:18:15;14.82;;;10.18;;
74941;SDS011;63506;49.346;8.798;2023-01-26T15:20:50;17.33;;;11.70;;
74941;SDS011;63506;49.346;8.798;2023-01-26T15:23:27;16.73;;;12.35;;
74941;SDS011;63506;49.346;8.798;2023-01-26T15:25:55;15.63;;;12.52;;
74941;SDS011;63506;49.346;8.798;2023-01-26T15:28:35;19.55;;;13.68;;
74941;SDS011;63506;49.346;8.798;2023-01-26T15:31:05;16.13;;;12.98;;
74941;SDS011;63506;49.346;8.798;2023-01-26T15:33:36;18.08;;;10.35;;
74941;SDS011;63506;49.346;8.798;2023-01-26T15:36:24;19.25;;;13.38;;
74941;SDS011;63506;49.346;8.798;2023-01-26T15:39:02;17.52;;;14.18;;
74941;SDS011;63506;49.346;8.798;2023-01-26T15:41:37;14.48;;;10.52;;
74941;SDS011;63506;49.346;8.798;2023-01-26T15:44:07;16.58;;;13.45;;
74941;SDS011;63506;49.346;8.798;2023-01-26T15:46:43;15.98;;;12.93;;
74941;SDS011;63506;49.346;8.798;2023-01-26T15:49:11;15.00;;;13.00;;
74941;SDS011;63506;49.346;8.798;2023-01-26T15:51:41;15.77;;;11.40;;
74941;SDS011;63506;49.346;8.798;2023-01-26T15:54:14;13.30;;;10.27;;
74941;SDS011;63506;49.346;8.798;2023-01-26T15:56:41;18.38;;;12.40;;
74941;SDS011;63506;49.346;8.798;2023-01-26T15:59:11;14.95;;;11.80;;
74941;SDS011;63506;49.346;8.798;2023-01-26T16:01:41;13.60;;;11.52;;
74941;SDS011;63506;49.346;8.798;2023-01-26T16:04:11;16.23;;;10.75;;
74941;SDS011;63506;49.346;8.798;2023-01-26T16:06:39;18.35;;;13.27;;
74941;SDS011;63506;49.346;8.798;2023-01-26T16:09:06;15.50;;;12.27;;
74941;SDS011;63506;49.346;8.798;2023-01-26T16:11:38;14.35;;;12.75;;
74941;SDS011;63506;49.346;8.798;2023-01-26T16:14:12;13.57;;;10.13;;
74941;SDS011;63506;49.346;8.798;2023-01-26T16:16:40;13.82;;;10.15;;
74941;SDS011;63506;49.346;8.798;2023-01-26T16:19:09;15.10;;;9.63;;
74941;SDS011;63506;49.346;8.798;2023-01-26T16:21:40;14.80;;;11.13;;
74941;SDS011;63506;49.346;8.798;2023-01-26T16:24:09;13.35;;;10.70;;
74941;SDS011;63506;49.346;8.798;2023-01-26T16:26:38;15.80;;;11.23;;
74941;SDS011;63506;49.346;8.798;2023-01-26T16:29:08;18.65;;;12.02;;
74941;SDS011;63506;49.346;8.798;2023-01-26T16:31:35;16.60;;;10.13;;
74941;SDS011;63506;49.346;8.798;2023-01-26T16:34:04;13.40;;;10.95;;
74941;SDS011;63506;49.346;8.798;2023-01-26T16:36:32;17.52;;;12.35;;
74941;SDS011;63506;49.346;8.798;2023-01-26T16:38:59;15.85;;;11.68;;
74941;SDS011;63506;49.346;8.798;2023-01-26T16:41:27;17.25;;;12.02;;
74941;SDS011;63506;49.346;8.798;2023-01-26T16:43:56;16.05;;;12.75;;
74941;SDS011;63506;49.346;8.798;2023-01-26T16:46:24;13.15;;;11.63;;
74941;SDS011;63506;49.346;8.798;2023-01-26T16:48:52;10.63;;;8.18;;
74941;SDS011;63506;49.346;8.798;2023-01-26T16:51:20;11.20;;;7.93;;
74941;SDS011;63506;49.346;8.798;2023-01-26T16:53:50;13.65;;;9.65;;
74941;SDS011;63506;49.346;8.798;2023-01-26T16:56:21;10.13;;;7.93;;
74941;SDS011;63506;49.346;8.798;2023-01-26T16:58:49;10.07;;;8.85;;
74941;SDS011;63506;49.346;8.798;2023-01-26T17:01:19;10.15;;;7.63;;
74941;SDS011;63506;49.346;8.798;2023-01-26T17:03:47;15.75;;;9.93;;
74941;SDS011;63506;49.346;8.798;2023-01-26T17:06:15;8.65;;;6.85;;
74941;SDS011;63506;49.346;8.798;2023-01-26T17:08:45;9.70;;;7.75;;
74941;SDS011;63506;49.346;8.798;2023-01-26T17:11:14;10.70;;;8.27;;
74941;SDS011;63506;49.346;8.798;2023-01-26T17:13:45;10.05;;;9.05;;
74941;SDS011;63506;49.346;8.798;2023-01-26T17:16:13;11.45;;;8.85;;
74941;SDS011;63506;49.346;8.798;2023-01-26T17:18:46;13.38;;;8.15;;
74941;SDS011;63506;49.346;8.798;2023-01-26T17:21:14;11.90;;;8.80;;
74941;SDS011;63506;49.346;8.798;2023-01-26T17:23:46;13.10;;;10.38;;
74941;SDS011;63506;49.346;8.798;2023-01-26T17:26:17;10.18;;;9.13;;
74941;SDS011;63506;49.346;8.798;2023-01-26T17:28:45;13.63;;;8.90;;
74941;SDS011;63506;49.346;8.798;2023-01-26T17:31:17;14.32;;;8.70;;
74941;SDS011;63506;49.346;8.798;2023-01-26T17:33:47;13.25;;;8.13;;
74941;SDS011;63506;49.346;8.798;2023-01-26T17:36:18;13.93;;;9.07;;
74941;SDS011;63506;49.346;8.798;2023-01-26T17:38:48;11.82;;;9.77;;
74941;SDS011;63506;49.346;8.798;2023-01-26T17:41:16;10.95;;;9.07;;
74941;SDS011;63506;49.346;8.798;2023-01-26T17:43:43;11.40;;;9.45;;
74941;SDS011;63506;49.346;8.798;2023-01-26T17:46:11;12.15;;;10.73;;
74941;SDS011;63506;49.346;8.798;2023-01-26T17:48:40;13.35;;;9.80;;
74941;SDS011;63506;49.346;8.798;2023-01-26T17:51:10;13.98;;;9.65;;
74941;SDS011;63506;49.346;8.798;2023-01-26T17:53:39;14.45;;;10.18;;
74941;SDS011;63506;49.346;8.798;2023-01-26T17:56:07;13.65;;;10.60;;
74941;SDS011;63506;49.346;8.798;2023-01-26T17:58:35;11.70;;;10.50;;
74941;SDS011;63506;49.346;8.798;2023-01-26T18:01:05;10.05;;;7.95;;
74941;SDS011;63506;49.346;8.798;2023-01-26T18:03:33;17.65;;;11.15;;
74941;SDS011;63506;49.346;8.798;2023-01-26T18:06:04;12.85;;;10.50;;
74941;SDS011;63506;49.346;8.798;2023-01-26T18:08:35;14.63;;;10.25;;
74941;SDS011;63506;49.346;8.798;2023-01-26T18:11:06;14.88;;;11.45;;
74941;SDS011;63506;49.346;8.798;2023-01-26T18:13:36;16.45;;;12.20;;
74941;SDS011;63506;49.346;8.798;2023-01-26T18:16:04;10.45;;;9.20;;
74941;SDS011;63506;49.346;8.798;2023-01-26T18:18:33;11.95;;;10.10;;
74941;SDS011;63506;49.346;8.798;2023-01-26T18:21:08;10.90;;;8.88;;
74941;SDS011;63506;49.346;8.798;2023-01-26T18:23:46;19.27;;;11.93;;
74941;SDS011;63506;49.346;8.798;2023-01-26T18:26:14;14.00;;;11.10;;
74941;SDS011;63506;49.346;8.798;2023-01-26T18:28:42;14.85;;;9.60;;
74941;SDS011;63506;49.346;8.798;2023-01-26T18:31:10;11.52;;;8.23;;
74941;SDS011;63506;49.346;8.798;2023-01-26T18:33:38;14.07;;;10.73;;
74941;SDS011;63506;49.346;8.798;2023-01-26T18:36:06;12.63;;;9.48;;
74941;SDS011;63506;49.346;8.798;2023-01-26T18:38:40;13.48;;;9.43;;
74941;SDS011;63506;49.346;8.798;2023-01-26T18:41:10;13.77;;;10.05;;
74941;SDS011;63506;49.346;8.798;2023-01-26T18:43:38;12.20;;;8.88;;
74941;SDS011;63506;49.346;8.798;2023-01-26T18:46:08;12.40;;;9.68;;
74941;SDS011;63506;49.346;8.798;2023-01-26T18:48:38;11.77;;;8.00;;
74941;SDS011;63506;49.346;8.798;2023-01-26T18:51:08;11.32;;;8.95;;
74941;SDS011;63506;49.346;8.798;2023-01-26T18:53:36;11.20;;;8.80;;
74941;SDS011;63506;49.346;8.798;2023-01-26T18:56:05;10.57;;;8.30;;
74941;SDS011;63506;49.346;8.798;2023-01-26T18:58:35;12.50;;;9.07;;
74941;SDS011;63506;49.346;8.798;2023-01-26T19:01:03;12.05;;;10.02;;
74941;SDS011;63506;49.346;8.798;2023-01-26T19:03:37;9.90;;;8.57;;
74941;SDS011;63506;49.346;8.798;2023-01-26T19:06:07;11.50;;;8.95;;
74941;SDS011;63506;49.346;8.798;2023-01-26T19:08:34;13.05;;;10.00;;
74941;SDS011;63506;49.346;8.798;2023-01-26T19:11:02;11.75;;;8.35;;
74941;SDS011;63506;49.346;8.798;2023-01-26T19:13:30;10.52;;;9.23;;
74941;SDS011;63506;49.346;8.798;2023-01-26T19:16:01;10.85;;;9.18;;
74941;SDS011;63506;49.346;8.798;2023-01-26T19:18:30;12.60;;;7.90;;
74941;SDS011;63506;49.346;8.798;2023-01-26T19:20:58;11.35;;;8.35;;
74941;SDS011;63506;49.346;8.798;2023-01-26T19:23:29;13.55;;;8.88;;
74941;SDS011;63506;49.346;8.798;2023-01-26T19:25:57;10.32;;;7.88;;
74941;SDS011;63506;49.346;8.798;2023-01-26T19:28:24;12.05;;;7.10;;
74941;SDS011;63506;49.346;8.798;2023-01-26T19:30:51;12.35;;;6.97;;
74941;SDS011;63506;49.346;8.798;2023-01-26T19:33:31;9.60;;;7.97;;
74941;SDS011;63506;49.346;8.798;2023-01-26T19:36:02;14.40;;;8.18;;
74941;SDS011;63506;49.346;8.798;2023-01-26T19:38:30;10.50;;;7.85;;
74941;SDS011;63506;49.346;8.798;2023-01-26T19:40:59;10.77;;;7.88;;
74941;SDS011;63506;49.346;8.798;2023-01-26T19:43:29;9.13;;;6.70;;
74941;SDS011;63506;49.346;8.798;2023-01-26T19:45:57;13.15;;;8.48;;
74941;SDS011;63506;49.346;8.798;2023-01-26T19:48:26;10.27;;;9.23;;
74941;SDS011;63506;49.346;8.798;2023-01-26T19:50:57;14.77;;;10.05;;
74941;SDS011;63506;49.346;8.798;2023-01-26T19:53:27;9.15;;;8.20;;
74941;SDS011;63506;49.346;8.798;2023-01-26T19:55:55;11.68;;;8.05;;
74941;SDS011;63506;49.346;8.798;2023-01-26T19:58:24;11.20;;;9.40;;
74941;SDS011;63506;49.346;8.798;2023-01-26T20:00:58;13.20;;;9.82;;
74941;SDS011;63506;49.346;8.798;2023-01-26T20:03:29;10.23;;;8.02;;
74941;SDS011;63506;49.346;8.798;2023-01-26T20:05:57;9.82;;;7.70;;
74941;SDS011;63506;49.346;8.798;2023-01-26T20:08:24;14.02;;;9.13;;
74941;SDS011;63506;49.346;8.798;2023-01-26T20:10:53;13.65;;;7.93;;
74941;SDS011;63506;49.346;8.798;2023-01-26T20:13:20;8.63;;;6.95;;
74941;SDS011;63506;49.346;8.798;2023-01-26T20:15:47;9.50;;;7.70;;
74941;SDS011;63506;49.346;8.798;2023-01-26T20:18:14;9.27;;;7.50;;
74941;SDS011;63506;49.346;8.798;2023-01-26T20:20:43;11.98;;;8.48;;
74941;SDS011;63506;49.346;8.798;2023-01-26T20:23:14;10.00;;;7.30;;
74941;SDS011;63506;49.346;8.798;2023-01-26T20:25:42;13.20;;;7.63;;
74941;SDS011;63506;49.346;8.798;2023-01-26T20:28:09;9.73;;;7.05;;
74941;SDS011;63506;49.346;8.798;2023-01-26T20:30:39;11.15;;;7.22;;
74941;SDS011;63506;49.346;8.798;2023-01-26T20:33:06;10.88;;;7.57;;
74941;SDS011;63506;49.346;8.798;2023-01-26T20:35:34;14.18;;;8.15;;
74941;SDS011;63506;49.346;8.798;2023-01-26T20:38:05;9.70;;;7.00;;
74941;SDS011;63506;49.346;8.798;2023-01-26T20:40:32;8.60;;;6.95;;
74941;SDS011;63506;49.346;8.798;2023-01-26T20:42:59;9.63;;;7.00;;
74941;SDS011;63506;49.346;8.798;2023-01-26T20:45:27;12.48;;;9.05;;
74941;SDS011;63506;49.346;8.798;2023-01-26T20:47:56;9.30;;;7.75;;
74941;SDS011;63506;49.346;8.798;2023-01-26T20:50:23;14.82;;;8.32;;
74941;SDS011;63506;49.346;8.798;2023-01-26T20:52:51;10.20;;;8.05;;
74941;SDS011;63506;49.346;8.798;2023-01-26T20:55:19;9.63;;;6.82;;
74941;SDS011;63506;49.346;8.798;2023-01-26T20:57:49;9.82;;;7.18;;
74941;SDS011;63506;49.346;8.798;2023-01-26T21:00:20;9.80;;;8.27;;
74941;SDS011;63506;49.346;8.798;2023-01-26T21:02:50;15.77;;;9.70;;
74941;SDS011;63506;49.346;8.798;2023-01-26T21:05:17;15.00;;;9.85;;
74941;SDS011;63506;49.346;8.798;2023-01-26T21:07:47;14.35;;;8.13;;
74941;SDS011;63506;49.346;8.798;2023-01-26T21:10:14;9.57;;;7.18;;
74941;SDS011;63506;49.346;8.798;2023-01-26T21:12:48;12.85;;;9.35;;
74941;SDS011;63506;49.346;8.798;2023-01-26T21:15:16;13.57;;;10.13;;
74941;SDS011;63506;49.346;8.798;2023-01-26T21:17:46;15.55;;;10.38;;
74941;SDS011;63506;49.346;8.798;2023-01-26T21:20:13;11.93;;;9.65;;
74941;SDS011;63506;49.346;8.798;2023-01-26T21:22:41;15.68;;;8.77;;
74941;SDS011;63506;49.346;8.798;2023-01-26T21:25:08;10.40;;;8.02;;
74941;SDS011;63506;49.346;8.798;2023-01-26T21:27:36;11.88;;;8.93;;
74941;SDS011;63506;49.346;8.798;2023-01-26T21:30:08;10.68;;;8.50;;
74941;SDS011;63506;49.346;8.798;2023-01-26T21:32:36;12.50;;;8.90;;
74941;SDS011;63506;49.346;8.798;2023-01-26T21:35:03;12.23;;;8.88;;
74941;SDS011;63506;49.346;8.798;2023-01-26T21:37:33;13.57;;;8.23;;
74941;SDS011;63506;49.346;8.798;2023-01-26T21:40:01;11.50;;;9.18;;